Strona główna
METAR-TAF:

METAR-TAF

Lotnisko :

Port lotniczy Caracas

Caracas, Wenezuela

Szerokość geograficzna: 10-36N, Długość geograficzna: 066-59W, wysokość: 43 m

Aktualna obserwacja pogody

Raport powstał 52 minut temu, godzina 15:00 UTC
Wiatr 4 kt od wschód
Temperatura 29°C
Wilgotność 79%
Ciśnienie 1012 hPa
Widzialność 10 km lub więcej
Rozproszone chmury na wysokości 1600 ft

METAR: SVMI 161500Z 09004KT 9999 SCT016 29/25 Q1012

czas: 11:52 (15:52 UTC)

Prognoza

Raport powstał 5 godziny i 52 minut temu, godzina 10:00 UTC
Prognoza ważna od 16 godzina 12 UTC do 17 godzina 12 UTC
Wiatr 9 kt od zachód
Widzialność 10 km lub więcej
Rozproszone chmury na wysokości 1600 ft
Stopniowe zmiany
od 16 godzina 13 UTC do 16 godzina 17 UTC
Wiatr 7 kt od zachodnio-południowy zachód
Widzialność 10 km lub więcej
Przerywane chmury na wysokości 2000 ft
Rozproszone chmury na wysokości 1600 ft

TAF: SVMI 161000Z 1612/1712 26009KT 9999 SCT016 TX33/18Z TN26/08Z BECMG 1613/1617 24007KT 9999 BKN020 SCT016

Obserwacja i prognoza pogody dla ponad 4000 lotnisk (raport METAR i TAF).

Dostępne stacje oznaczono żółtymi i czerwonymi punktami na mapie.

Najedź kursorem aby zobaczyć nazwę stacji.

Kliknij aby zobaczyć obserwacje i prognozy pogody.

Aby zmienić mapę: kliknij na zielony przycisk z czarnym krzyżykiem, aby powiększyć; na zielony przycisk z myślnikiem, aby pomniejszyć; na zielone strzałki, aby przejść do map sąsiednich.


METAR-TAF: